Latest Weather Observations for Charleville

IDQ60801

Issued at 4:05 pm EST Sunday 26 October 2014 (issued every 30 minutes, with the page automatically refreshed every 10 minutes)

About weather observations | Map of weather stations | Latest weather observations for QLD | Other Formats
Station Details ID: 044021 Name: CHARLEVILLE AERO Lat: -26.41 Lon: 146.26 Height: 301.6 m
Data from the previous 72 hours. | See also: Recent months at Charleville
Date/Time
EST
Temp
°C
App
Temp
°C
Dew
Point
Rel
Hum
%
Delta-T
°C
Wind Press
QNH
hPa
Press
MSL
hPa
Rain
since 9 am
mm
Dir
 
Spd
km/h
Gust
km/h
Spd
kts
Gust
kts
26/04:00pm 38.7 34.1 -1.4 8 20.1 WSW 13 20 7 11 1010.1 - 0.0
26/03:30pm 40.1 35.8 -1.9 7 21.1 SW 11 17 6 9 1010.2 - 0.0
26/03:00pm 40.0 35.2 -2.2 7 21.1 WNW 13 20 7 11 1010.4 1009.4 0.0
26/02:30pm 39.4 33.9 -2.1 7 20.7 W 17 20 9 11 1010.9 - 0.0
26/02:00pm 38.9 34.1 -2.4 7 20.4 NW 13 26 7 14 1011.5 - 0.0
26/01:30pm 39.1 34.9 -1.0 8 20.3 WNW 11 19 6 10 1012.0 - 0.0
26/01:00pm 38.5 33.2 -0.8 8 19.8 NNW 17 28 9 15 1012.6 - 0.0
26/12:30pm 38.3 33.9 0.5 9 19.5 NNW 13 30 7 16 1013.2 - 0.0
26/12:00pm 37.5 32.7 2.6 11 18.5 NW 17 26 9 14 1013.8 1012.8 0.0
26/11:30am 37.1 32.5 3.8 12 17.9 NW 17 28 9 15 1014.3 - 0.0
26/11:00am 36.2 31.7 4.4 14 17.2 NNW 17 24 9 13 1014.9 - 0.0
26/10:30am 35.0 29.4 3.7 14 16.6 NNW 22 30 12 16 1015.4 - 0.0
26/10:00am 33.6 28.6 4.5 16 15.5 NW 20 32 11 17 1015.8 - 0.0
26/09:30am 32.6 26.9 4.7 17 14.9 NW 24 32 13 17 1016.2 - 0.0
26/09:00am 31.9 26.6 5.2 18 14.3 NNW 22 28 12 15 1016.3 1015.3 0.0
26/08:30am 28.9 25.3 6.9 25 11.9 N 15 19 8 10 1016.5 - 0.0
26/08:00am 27.0 23.0 6.8 27 10.8 N 17 20 9 11 1016.5 - 0.0
26/07:30am 25.3 21.0 6.9 31 9.8 NNE 19 24 10 13 1016.4 - 0.0
26/07:00am 23.5 20.7 6.9 34 8.7 NNE 11 17 6 9 1016.4 - 0.0
26/06:30am 22.2 20.3 6.9 37 8.0 NNW 6 9 3 5 1016.0 - 0.0
26/06:00am 21.2 18.8 6.9 39 7.4 N 9 11 5 6 1015.6 1014.6 0.0
26/05:30am 21.7 19.2 6.7 37 7.8 NNE 9 11 5 6 1015.0 - 0.0
26/05:00am 22.1 19.2 6.5 36 8.1 NNE 11 15 6 8 1014.5 - 0.0
26/04:30am 22.5 19.6 6.4 35 8.3 NNE 11 17 6 9 1014.2 - 0.0
26/04:00am 22.9 19.9 6.1 33 8.7 NNE 11 15 6 8 1014.0 - 0.0
26/03:30am 22.9 19.9 5.9 33 8.7 NNE 11 15 6 8 1014.0 - 0.0
26/03:00am 21.7 19.4 7.3 39 7.5 NNE 9 11 5 6 1013.8 1012.8 0.0
26/02:30am 22.1 20.2 7.5 39 7.7 N 7 9 4 5 1013.8 - 0.0
26/02:00am 21.8 20.2 7.8 40 7.4 N 6 7 3 4 1014.0 - 0.0
26/01:30am 21.9 21.3 7.5 39 7.6 NNE 0 0 0 0 1014.3 - 0.0
26/01:00am 22.4 20.8 7.8 39 7.7 NNE 6 7 3 4 1014.8 - 0.0
26/12:30am 22.6 21.8 6.7 35 8.3 CALM 0 0 0 0 1015.1 - 0.0
26/12:00am 23.1 22.1 7.5 36 8.3 NNE 2 6 1 3 1015.4 1014.4 0.0
 
Date/Time
EST
Temp
°C
App
Temp
°C
Dew
Point
Rel
Hum
%
Delta-T
°C
Wind Press
QNH
hPa
Press
MSL
hPa
Rain
since 9 am
mm
Dir
 
Spd
km/h
Gust
km/h
Spd
kts
Gust
kts
25/11:30pm 23.3 21.1 6.4 33 8.8 NNE 7 9 4 5 1015.7 - 0.0
25/11:00pm 23.7 23.0 6.8 33 8.9 CALM 0 0 0 0 1015.8 - 0.0
25/10:30pm 23.9 23.4 7.9 36 8.6 CALM 0 0 0 0 1015.9 - 0.0
25/10:00pm 24.7 24.0 6.9 32 9.4 CALM 0 0 0 0 1015.9 - 0.0
25/09:30pm 25.7 24.9 6.5 29 10.1 CALM 0 0 0 0 1015.9 - 0.0
25/09:00pm 26.2 25.0 4.4 24 11.1 CALM 0 0 0 0 1015.8 1014.8 0.0
25/08:30pm 27.0 26.3 6.8 27 10.8 CALM 0 0 0 0 1015.7 - 0.0
25/08:00pm 27.9 27.1 6.4 25 11.5 CALM 0 0 0 0 1015.5 - 0.0
25/07:30pm 29.7 28.6 4.9 20 13.0 CALM 0 0 0 0 1015.2 - 0.0
25/07:00pm 31.7 31.2 7.9 22 13.3 CALM 0 0 0 0 1014.9 - 0.0
25/06:30pm 33.8 30.9 4.6 16 15.6 ESE 9 11 5 6 1014.7 - 0.0
25/06:00pm 35.3 32.0 2.4 12 17.1 SSW 9 13 5 7 1014.4 1013.4 0.0
25/05:30pm 36.1 32.5 3.0 12 17.5 S 11 15 6 8 1014.2 - 0.0
25/05:00pm 36.6 31.2 -1.1 9 18.7 SW 17 22 9 12 1014.0 - 0.0
25/04:30pm 37.1 31.9 0.0 9 18.8 S 17 26 9 14 1014.0 - 0.0
25/04:00pm 37.1 32.9 -0.6 9 18.9 S 11 26 6 14 1014.0 - 0.0
25/03:30pm 37.6 31.7 -0.9 9 19.3 W 20 26 11 14 1014.1 - 0.0
25/03:00pm 37.9 33.0 1.7 10 18.9 WSW 17 30 9 16 1014.4 1013.4 0.0
25/02:30pm 36.5 31.6 2.0 11 18.0 NNW 17 24 9 13 1015.0 - 0.0
25/02:00pm 37.0 33.8 3.1 12 18.0 SSW 9 19 5 10 1015.5 - 0.0
25/01:30pm 36.1 30.8 1.7 11 17.8 NNW 19 33 10 18 1016.0 - 0.0
25/01:00pm 35.9 32.9 1.9 12 17.6 WNW 7 11 4 6 1016.5 - 0.0
25/12:30pm 35.9 31.7 3.7 13 17.2 NW 15 26 8 14 1017.1 - 0.0
25/12:00pm 34.6 28.7 3.7 14 16.3 WNW 24 32 13 17 1017.8 1016.9 0.0
25/11:30am 34.4 29.6 4.5 15 16.0 WNW 19 32 10 17 1018.3 - 0.0
25/11:00am 32.7 27.4 4.8 17 14.9 NW 22 33 12 18 1019.0 - 0.0
25/10:30am 32.3 27.6 5.2 18 14.5 NW 19 30 10 16 1019.5 - 0.0
25/10:00am - - - - - NW 22 33 12 18 - - 0.0
25/09:30am 30.1 25.2 6.8 23 12.7 N 22 28 12 15 1020.0 - 0.0
25/09:00am 28.5 22.4 6.4 24 11.8 NNW 28 35 15 19 1020.1 1019.1 0.0
25/08:30am 27.7 21.4 5.9 25 11.5 NNW 28 37 15 20 1020.2 - 0.0
25/08:00am 27.5 19.2 6.0 25 11.4 NNW 39 43 21 23 1020.0 - 0.0
25/07:30am 26.2 21.8 6.5 28 10.4 N 19 26 10 14 1020.0 - 0.0
25/07:00am 24.6 20.2 7.2 32 9.2 N 20 26 11 14 1019.8 - 0.0
25/06:30am 23.6 20.6 7.7 36 8.5 N 13 15 7 8 1019.5 - 0.0
25/06:00am 21.7 19.4 9.0 44 6.8 N 11 13 6 7 1019.1 1018.1 0.0
25/05:30am 22.1 19.6 8.2 41 7.4 NNE 11 15 6 8 1018.6 - 0.0
25/05:00am 22.1 19.6 8.3 41 7.4 NNE 11 13 6 7 1018.0 - 0.0
25/04:30am 22.5 20.0 8.1 39 7.7 NNE 11 13 6 7 1017.5 - 0.0
25/04:00am 22.7 20.2 8.2 39 7.8 NNE 11 13 6 7 1017.1 - 0.0
25/03:30am 22.9 20.0 8.1 38 7.9 NNE 13 17 7 9 1016.9 - 0.0
25/03:00am 22.6 20.1 8.1 39 7.7 NNE 11 13 6 7 1016.7 1015.7 0.0
25/02:30am 22.8 19.8 7.8 38 8.0 NNE 13 15 7 8 1016.5 - 0.0
25/02:00am 22.6 20.5 8.4 40 7.6 N 9 9 5 5 1016.7 - 0.0
25/01:30am 22.9 20.9 7.3 36 8.2 NNE 7 9 4 5 1016.8 - 0.0
25/01:00am 23.6 20.4 6.7 33 8.8 N 13 15 7 8 1016.9 - 0.0
25/12:30am 23.9 20.5 6.1 31 9.2 N 13 15 7 8 1016.9 - 0.0
25/12:00am 23.0 20.9 6.6 34 8.5 NNE 7 7 4 4 1016.9 1015.9 0.0
 
Date/Time
EST
Temp
°C
App
Temp
°C
Dew
Point
Rel
Hum
%
Delta-T
°C
Wind Press
QNH
hPa
Press
MSL
hPa
Rain
since 9 am
mm
Dir
 
Spd
km/h
Gust
km/h
Spd
kts
Gust
kts
24/11:30pm 23.9 21.8 6.6 33 9.1 NNE 7 7 4 4 1017.0 - 0.0
24/11:00pm 23.4 21.3 6.5 33 8.8 NNE 7 9 4 5 1017.3 - 0.0
24/10:30pm 23.8 23.4 8.4 37 8.3 CALM 0 0 0 0 1017.3 - 0.0
24/10:00pm 24.2 23.3 6.2 31 9.4 CALM 0 4 0 2 1017.4 - 0.0
24/09:30pm 24.9 23.8 5.1 28 10.1 CALM 0 0 0 0 1017.4 - 0.0
24/09:00pm 25.2 24.4 6.4 30 9.9 CALM 0 0 0 0 1017.2 1016.2 0.0
24/08:30pm 26.5 25.8 7.1 29 10.4 CALM 0 0 0 0 1017.1 - 0.0
24/08:00pm 27.5 26.3 6.6 26 11.2 N 2 7 1 4 1016.9 - 0.0
24/07:30pm 28.3 27.5 6.3 24 11.7 CALM 0 0 0 0 1016.7 - 0.0
24/07:00pm 30.4 29.2 4.8 19 13.5 CALM 0 0 0 0 1016.5 - 0.0
24/06:30pm 32.4 31.8 7.4 21 13.9 CALM 0 0 0 0 1016.3 - 0.0
24/06:00pm 34.5 33.5 5.4 16 15.8 CALM 0 0 0 0 1016.1 1015.1 0.0
24/05:30pm 34.8 31.9 2.4 13 16.8 NE 7 11 4 6 1015.7 - 0.0
24/05:00pm 35.4 31.5 1.1 11 17.5 SSE 11 15 6 8 1015.5 - 0.0
24/04:30pm 35.2 31.5 2.1 12 17.2 NE 11 17 6 9 1015.4 - 0.0
24/04:00pm 35.3 31.5 4.0 14 16.7 NNW 13 19 7 10 1015.4 - 0.0
24/03:30pm 34.7 31.4 2.5 13 16.7 NNW 9 17 5 9 1015.6 - 0.0
24/03:00pm 35.7 31.5 1.8 12 17.5 W 13 20 7 11 1015.9 1014.9 0.0
24/02:30pm 35.4 31.5 1.4 12 17.4 WSW 11 19 6 10 1016.1 - 0.0
24/02:00pm 35.3 31.6 2.2 12 17.2 N 11 19 6 10 1016.7 - 0.0
24/01:30pm 34.6 31.2 4.2 15 16.2 NW 11 28 6 15 1017.1 - 0.0
24/01:00pm 34.6 31.0 3.2 14 16.5 WNW 11 22 6 12 1017.6 - 0.0
24/12:30pm 34.3 29.6 3.3 14 16.3 N 17 30 9 16 1018.2 - 0.0
24/12:00pm 32.7 28.8 5.2 18 14.7 WNW 15 28 8 15 1018.7 1017.7 0.0
24/11:30am 32.8 28.8 5.1 17 14.9 N 15 26 8 14 1019.1 - 0.0
24/11:00am 31.5 27.2 5.3 19 14.0 WNW 17 28 9 15 1019.7 - 0.0
24/10:30am 31.2 25.7 4.0 18 14.2 NNW 22 33 12 18 1020.1 - 0.0
24/10:00am 30.9 25.8 4.1 18 14.0 NW 20 26 11 14 1020.5 - 0.0
24/09:30am 30.0 24.8 3.6 18 13.6 N 20 22 11 12 1020.6 - 0.0
24/09:00am 28.8 23.9 4.0 20 12.7 N 19 26 10 14 1020.6 1019.7 -
24/08:30am 27.7 23.3 4.6 23 11.9 NNW 17 24 9 13 1020.7 - -
24/08:00am 25.5 21.5 6.8 30 9.9 N 17 19 9 10 1020.5 - -
24/07:30am 24.1 19.8 6.8 33 9.1 N 19 26 10 14 1020.4 - -
24/07:00am 22.4 18.6 7.5 38 7.9 NNE 17 22 9 12 1020.1 - -
24/06:30am 20.8 17.9 8.3 44 6.6 N 13 17 7 9 1019.7 - -
24/06:00am 19.5 17.2 8.9 50 5.6 NNE 11 15 6 8 1019.5 1018.5 -
24/05:30am 19.0 17.5 9.0 52 5.3 NNE 7 9 4 5 1019.0 - -
24/05:00am 19.4 17.4 8.7 50 5.7 N 9 11 5 6 1018.8 - -
24/04:30am 19.9 17.8 8.3 47 6.1 N 9 13 5 7 1018.5 - -
24/04:00am 20.6 17.6 7.8 43 6.7 NNE 13 15 7 8 1018.0 - -
24/03:30am 20.9 18.3 7.7 42 6.9 NNE 11 13 6 7 1017.7 - -
24/03:00am 21.2 18.1 7.4 41 7.2 NNE 13 15 7 8 1017.6 1016.7 -
24/02:30am 21.1 19.0 8.1 43 6.9 NNE 9 11 5 6 1017.6 - -
24/02:00am 21.2 19.2 8.6 44 6.7 NNE 9 11 5 6 1017.7 - -
24/01:30am 21.3 19.5 8.1 42 7.0 NNE 7 9 4 5 1017.9 - -
24/01:00am 20.3 18.8 9.1 48 6.0 NNE 7 9 4 5 1018.2 - -
24/12:30am 20.9 20.6 8.8 46 6.5 CALM 0 0 0 0 1018.2 - -
24/12:00am 21.5 21.0 8.0 42 7.1 CALM 0 0 0 0 1018.3 1017.3 -
 
Date/Time
EST
Temp
°C
App
Temp
°C
Dew
Point
Rel
Hum
%
Delta-T
°C
Wind Press
QNH
hPa
Press
MSL
hPa
Rain
since 9 am
mm
Dir
 
Spd
km/h
Gust
km/h
Spd
kts
Gust
kts
23/11:30pm 22.0 20.1 7.4 39 7.7 NE 7 9 4 5 1018.3 - -
23/11:00pm 22.9 21.1 7.9 38 8.0 NE 7 9 4 5 1018.4 - -
23/10:30pm 24.0 21.6 7.2 34 8.9 ENE 9 11 5 6 1018.3 - -
23/10:00pm 24.5 22.8 8.5 36 8.7 NNE 7 9 4 5 1018.3 - -
23/09:30pm 26.0 24.3 8.2 32 9.7 NE 7 9 4 5 1018.0 - -
23/09:00pm 27.0 24.9 8.2 30 10.3 ENE 9 11 5 6 1017.8 1016.9 -
23/08:30pm 28.4 26.1 7.4 26 11.4 NE 9 11 5 6 1017.4 - -
23/08:00pm 29.4 26.2 7.0 24 12.2 ENE 13 15 7 8 1017.1 - -
23/07:30pm 29.6 26.7 6.3 23 12.5 ENE 11 13 6 7 1016.9 - -
23/07:00pm 29.7 26.3 6.1 22 12.7 NE 13 17 7 9 1016.4 - -
23/06:30pm 31.1 28.4 5.7 20 13.6 ESE 9 9 5 5 1016.0 - -
23/06:00pm 32.3 29.3 3.9 16 14.9 SSE 9 13 5 7 1015.7 1014.7 -
23/05:30pm 32.7 30.0 3.8 16 15.2 SE 7 13 4 7 1015.5 - -
23/05:00pm 34.1 30.9 2.8 14 16.3 E 9 13 5 7 1015.2 - -
23/04:30pm 33.4 31.6 3.4 15 15.7 W 2 9 1 5 1015.2 - -

Other Formats:

Comma delimited format used in spreadsheet applications
http://www.bom.gov.au/fwo/IDQ60801/IDQ60801.94510.axf

JavaScript Object Notation format (JSON) in row-major order
http://www.bom.gov.au/fwo/IDQ60801/IDQ60801.94510.json